Akkuduk, Kazakhstan
Current Conditions -  °F | °C
As of 10:00 PM on Monday 20 Oct 2014 (Local Time) from UATE Reporting Station
Broken Clouds Broken Clouds  
Wind Chill: 34°   Ceiling: 3600
Heat Index: 41°   Visibility: 6mi
Dew Point: 34°   Wind: 11mph
Humidity: 76%   Direction: 130°SE
Pressure: 30.24"   Gusts: NA
Location:  42.97°N, 54.12°E
Report Text: UATE 201800Z 13005MPS 9999 BKN036 05/01 Q1024 R12/0///70 NOSIGRMK QFE766/1021
Loading
Personal Weather Stations






























Interactive Weather Map
Tropical Storm Tracking
New forecast layout! Learn more

10-Day Weather Forecast

Advertisements
Track Severe Weather on mobile